sensor_id;sensor_type;location;lat;lon;timestamp;P1;durP1;ratioP1;P2;durP2;ratioP2
67508;SDS011;54354;44.724;11.284;2023-07-08T00:00:22;8.75;;;5.43;;
67508;SDS011;54354;44.724;11.284;2023-07-08T00:02:50;10.77;;;5.38;;
67508;SDS011;54354;44.724;11.284;2023-07-08T00:05:18;6.45;;;5.50;;
67508;SDS011;54354;44.724;11.284;2023-07-08T00:07:44;6.38;;;5.60;;
67508;SDS011;54354;44.724;11.284;2023-07-08T00:12:48;9.65;;;5.90;;
67508;SDS011;54354;44.724;11.284;2023-07-08T00:15:15;9.13;;;6.50;;
67508;SDS011;54354;44.724;11.284;2023-07-08T00:17:42;7.85;;;6.20;;
67508;SDS011;54354;44.724;11.284;2023-07-08T00:20:18;12.60;;;6.25;;
67508;SDS011;54354;44.724;11.284;2023-07-08T00:22:47;9.05;;;6.15;;
67508;SDS011;54354;44.724;11.284;2023-07-08T00:25:15;10.52;;;5.80;;
67508;SDS011;54354;44.724;11.284;2023-07-08T00:27:42;8.82;;;6.40;;
67508;SDS011;54354;44.724;11.284;2023-07-08T00:30:10;15.27;;;6.32;;
67508;SDS011;54354;44.724;11.284;2023-07-08T00:32:44;14.85;;;6.32;;
67508;SDS011;54354;44.724;11.284;2023-07-08T00:35:10;11.10;;;5.93;;
67508;SDS011;54354;44.724;11.284;2023-07-08T00:37:35;7.05;;;6.07;;
67508;SDS011;54354;44.724;11.284;2023-07-08T00:40:01;7.70;;;5.82;;
67508;SDS011;54354;44.724;11.284;2023-07-08T00:42:38;13.00;;;6.40;;
67508;SDS011;54354;44.724;11.284;2023-07-08T00:45:11;9.60;;;6.00;;
67508;SDS011;54354;44.724;11.284;2023-07-08T00:47:45;8.95;;;6.15;;
67508;SDS011;54354;44.724;11.284;2023-07-08T00:50:11;13.15;;;7.10;;
67508;SDS011;54354;44.724;11.284;2023-07-08T00:52:37;10.00;;;6.25;;
67508;SDS011;54354;44.724;11.284;2023-07-08T00:55:06;14.07;;;6.60;;
67508;SDS011;54354;44.724;11.284;2023-07-08T00:57:35;7.97;;;6.60;;
67508;SDS011;54354;44.724;11.284;2023-07-08T01:02:32;9.82;;;6.88;;
67508;SDS011;54354;44.724;11.284;2023-07-08T01:07:29;7.22;;;6.40;;
67508;SDS011;54354;44.724;11.284;2023-07-08T01:10:00;11.40;;;6.97;;
67508;SDS011;54354;44.724;11.284;2023-07-08T01:12:37;10.68;;;6.75;;
67508;SDS011;54354;44.724;11.284;2023-07-08T01:15:06;15.18;;;6.93;;
67508;SDS011;54354;44.724;11.284;2023-07-08T01:17:33;14.43;;;6.97;;
67508;SDS011;54354;44.724;11.284;2023-07-08T01:20:00;13.80;;;6.78;;
67508;SDS011;54354;44.724;11.284;2023-07-08T01:22:31;9.57;;;6.63;;
67508;SDS011;54354;44.724;11.284;2023-07-08T01:25:01;9.00;;;6.43;;
67508;SDS011;54354;44.724;11.284;2023-07-08T01:27:30;13.57;;;6.78;;
67508;SDS011;54354;44.724;11.284;2023-07-08T01:32:26;10.43;;;7.95;;
67508;SDS011;54354;44.724;11.284;2023-07-08T01:34:52;14.18;;;7.97;;
67508;SDS011;54354;44.724;11.284;2023-07-08T01:37:40;13.18;;;8.10;;
67508;SDS011;54354;44.724;11.284;2023-07-08T01:40:14;14.95;;;10.70;;
67508;SDS011;54354;44.724;11.284;2023-07-08T01:42:41;10.73;;;7.80;;
67508;SDS011;54354;44.724;11.284;2023-07-08T01:45:14;12.73;;;7.70;;
67508;SDS011;54354;44.724;11.284;2023-07-08T01:47:42;10.40;;;7.40;;
67508;SDS011;54354;44.724;11.284;2023-07-08T01:50:12;13.80;;;7.63;;
67508;SDS011;54354;44.724;11.284;2023-07-08T01:52:38;13.25;;;7.47;;
67508;SDS011;54354;44.724;11.284;2023-07-08T01:55:05;11.48;;;7.70;;
67508;SDS011;54354;44.724;11.284;2023-07-08T01:57:31;9.60;;;7.80;;
67508;SDS011;54354;44.724;11.284;2023-07-08T01:59:57;9.27;;;7.72;;
67508;SDS011;54354;44.724;11.284;2023-07-08T02:02:24;12.18;;;7.80;;
67508;SDS011;54354;44.724;11.284;2023-07-08T02:04:50;12.82;;;7.70;;
67508;SDS011;54354;44.724;11.284;2023-07-08T02:07:15;12.00;;;7.72;;
67508;SDS011;54354;44.724;11.284;2023-07-08T02:09:41;9.88;;;7.90;;
67508;SDS011;54354;44.724;11.284;2023-07-08T02:12:06;10.90;;;7.43;;
67508;SDS011;54354;44.724;11.284;2023-07-08T02:14:32;11.23;;;7.03;;
67508;SDS011;54354;44.724;11.284;2023-07-08T02:16:58;12.25;;;7.47;;
67508;SDS011;54354;44.724;11.284;2023-07-08T02:19:23;9.73;;;7.45;;
67508;SDS011;54354;44.724;11.284;2023-07-08T02:21:50;15.10;;;8.20;;
67508;SDS011;54354;44.724;11.284;2023-07-08T02:24:17;10.10;;;7.88;;
67508;SDS011;54354;44.724;11.284;2023-07-08T02:26:43;9.43;;;7.43;;
67508;SDS011;54354;44.724;11.284;2023-07-08T02:29:09;9.63;;;7.57;;
67508;SDS011;54354;44.724;11.284;2023-07-08T02:31:34;10.95;;;7.50;;
67508;SDS011;54354;44.724;11.284;2023-07-08T02:34:00;13.43;;;8.07;;
67508;SDS011;54354;44.724;11.284;2023-07-08T02:36:27;12.32;;;7.22;;
67508;SDS011;54354;44.724;11.284;2023-07-08T02:38:52;10.27;;;7.82;;
67508;SDS011;54354;44.724;11.284;2023-07-08T02:41:18;10.73;;;8.10;;
67508;SDS011;54354;44.724;11.284;2023-07-08T02:43:44;10.73;;;8.77;;
67508;SDS011;54354;44.724;11.284;2023-07-08T02:46:09;11.25;;;8.95;;
67508;SDS011;54354;44.724;11.284;2023-07-08T02:48:35;13.48;;;8.95;;
67508;SDS011;54354;44.724;11.284;2023-07-08T02:51:01;15.02;;;10.07;;
67508;SDS011;54354;44.724;11.284;2023-07-08T02:53:27;13.70;;;9.10;;
67508;SDS011;54354;44.724;11.284;2023-07-08T02:55:53;13.63;;;9.38;;
67508;SDS011;54354;44.724;11.284;2023-07-08T02:58:19;13.85;;;9.30;;
67508;SDS011;54354;44.724;11.284;2023-07-08T03:00:45;14.20;;;9.40;;
67508;SDS011;54354;44.724;11.284;2023-07-08T03:03:10;12.95;;;9.73;;
67508;SDS011;54354;44.724;11.284;2023-07-08T03:05:36;13.18;;;10.25;;
67508;SDS011;54354;44.724;11.284;2023-07-08T03:08:01;13.95;;;10.48;;
67508;SDS011;54354;44.724;11.284;2023-07-08T03:10:27;14.18;;;9.68;;
67508;SDS011;54354;44.724;11.284;2023-07-08T03:12:53;12.65;;;9.10;;
67508;SDS011;54354;44.724;11.284;2023-07-08T03:15:18;17.65;;;10.30;;
67508;SDS011;54354;44.724;11.284;2023-07-08T03:17:45;17.00;;;10.63;;
67508;SDS011;54354;44.724;11.284;2023-07-08T03:20:11;17.77;;;11.20;;
67508;SDS011;54354;44.724;11.284;2023-07-08T03:22:37;18.60;;;11.52;;
67508;SDS011;54354;44.724;11.284;2023-07-08T03:25:03;16.85;;;12.00;;
67508;SDS011;54354;44.724;11.284;2023-07-08T03:27:29;23.15;;;12.82;;
67508;SDS011;54354;44.724;11.284;2023-07-08T03:29:55;21.83;;;12.93;;
67508;SDS011;54354;44.724;11.284;2023-07-08T03:32:21;14.38;;;12.25;;
67508;SDS011;54354;44.724;11.284;2023-07-08T03:34:46;13.60;;;12.20;;
67508;SDS011;54354;44.724;11.284;2023-07-08T03:37:12;14.07;;;12.20;;
67508;SDS011;54354;44.724;11.284;2023-07-08T03:39:38;18.50;;;12.63;;
67508;SDS011;54354;44.724;11.284;2023-07-08T03:42:03;17.17;;;12.32;;
67508;SDS011;54354;44.724;11.284;2023-07-08T03:44:29;15.48;;;13.18;;
67508;SDS011;54354;44.724;11.284;2023-07-08T03:46:55;20.35;;;12.27;;
67508;SDS011;54354;44.724;11.284;2023-07-08T03:49:21;19.10;;;12.65;;
67508;SDS011;54354;44.724;11.284;2023-07-08T03:51:51;16.85;;;12.68;;
67508;SDS011;54354;44.724;11.284;2023-07-08T03:54:19;15.93;;;11.75;;
67508;SDS011;54354;44.724;11.284;2023-07-08T03:56:46;14.68;;;12.07;;
67508;SDS011;54354;44.724;11.284;2023-07-08T03:59:12;16.42;;;12.77;;
67508;SDS011;54354;44.724;11.284;2023-07-08T04:01:38;15.20;;;11.88;;
67508;SDS011;54354;44.724;11.284;2023-07-08T04:04:08;19.55;;;12.27;;
67508;SDS011;54354;44.724;11.284;2023-07-08T04:06:37;17.50;;;12.40;;
67508;SDS011;54354;44.724;11.284;2023-07-08T04:09:03;17.70;;;12.65;;
67508;SDS011;54354;44.724;11.284;2023-07-08T04:11:29;16.90;;;12.48;;
67508;SDS011;54354;44.724;11.284;2023-07-08T04:13:54;20.80;;;13.45;;
67508;SDS011;54354;44.724;11.284;2023-07-08T04:16:24;18.80;;;12.55;;
67508;SDS011;54354;44.724;11.284;2023-07-08T04:18:54;22.15;;;13.43;;
67508;SDS011;54354;44.724;11.284;2023-07-08T04:21:21;20.23;;;14.30;;
67508;SDS011;54354;44.724;11.284;2023-07-08T04:23:48;17.80;;;13.70;;
67508;SDS011;54354;44.724;11.284;2023-07-08T04:26:14;19.40;;;14.25;;
67508;SDS011;54354;44.724;11.284;2023-07-08T04:28:41;20.73;;;14.32;;
67508;SDS011;54354;44.724;11.284;2023-07-08T04:31:07;20.67;;;14.90;;
67508;SDS011;54354;44.724;11.284;2023-07-08T04:33:33;20.40;;;15.07;;
67508;SDS011;54354;44.724;11.284;2023-07-08T04:35:58;19.83;;;15.25;;
67508;SDS011;54354;44.724;11.284;2023-07-08T04:38:24;20.20;;;16.30;;
67508;SDS011;54354;44.724;11.284;2023-07-08T04:40:52;20.05;;;15.60;;
67508;SDS011;54354;44.724;11.284;2023-07-08T04:43:19;20.77;;;14.48;;
67508;SDS011;54354;44.724;11.284;2023-07-08T04:45:52;21.58;;;14.60;;
67508;SDS011;54354;44.724;11.284;2023-07-08T04:48:19;25.88;;;15.60;;
67508;SDS011;54354;44.724;11.284;2023-07-08T04:50:48;21.38;;;15.32;;
67508;SDS011;54354;44.724;11.284;2023-07-08T04:53:15;23.63;;;15.40;;
67508;SDS011;54354;44.724;11.284;2023-07-08T04:55:42;21.33;;;15.82;;
67508;SDS011;54354;44.724;11.284;2023-07-08T04:58:10;23.25;;;16.08;;
67508;SDS011;54354;44.724;11.284;2023-07-08T05:00:35;22.70;;;15.85;;
67508;SDS011;54354;44.724;11.284;2023-07-08T05:03:01;19.90;;;16.02;;
67508;SDS011;54354;44.724;11.284;2023-07-08T05:05:27;18.77;;;15.27;;
67508;SDS011;54354;44.724;11.284;2023-07-08T05:07:52;24.63;;;15.13;;
67508;SDS011;54354;44.724;11.284;2023-07-08T05:10:18;21.00;;;15.02;;
67508;SDS011;54354;44.724;11.284;2023-07-08T05:12:45;19.33;;;14.75;;
67508;SDS011;54354;44.724;11.284;2023-07-08T05:15:11;18.58;;;14.10;;
67508;SDS011;54354;44.724;11.284;2023-07-08T05:17:38;17.77;;;13.88;;
67508;SDS011;54354;44.724;11.284;2023-07-08T05:20:05;20.27;;;13.18;;
67508;SDS011;54354;44.724;11.284;2023-07-08T05:22:33;19.25;;;13.40;;
67508;SDS011;54354;44.724;11.284;2023-07-08T05:24:59;17.60;;;12.82;;
67508;SDS011;54354;44.724;11.284;2023-07-08T05:27:25;20.65;;;14.48;;
67508;SDS011;54354;44.724;11.284;2023-07-08T05:29:51;19.55;;;13.50;;
67508;SDS011;54354;44.724;11.284;2023-07-08T05:32:18;18.77;;;13.40;;
67508;SDS011;54354;44.724;11.284;2023-07-08T05:34:44;15.95;;;12.02;;
67508;SDS011;54354;44.724;11.284;2023-07-08T05:37:10;15.63;;;12.30;;
67508;SDS011;54354;44.724;11.284;2023-07-08T05:39:37;18.40;;;12.05;;
67508;SDS011;54354;44.724;11.284;2023-07-08T05:42:02;17.17;;;12.45;;
67508;SDS011;54354;44.724;11.284;2023-07-08T05:44:28;17.42;;;12.60;;
67508;SDS011;54354;44.724;11.284;2023-07-08T05:46:54;16.83;;;12.10;;
67508;SDS011;54354;44.724;11.284;2023-07-08T05:49:19;15.23;;;12.02;;
67508;SDS011;54354;44.724;11.284;2023-07-08T05:51:45;17.20;;;11.77;;
67508;SDS011;54354;44.724;11.284;2023-07-08T05:54:10;19.35;;;11.10;;
67508;SDS011;54354;44.724;11.284;2023-07-08T05:56:36;16.67;;;10.95;;
67508;SDS011;54354;44.724;11.284;2023-07-08T05:59:02;22.50;;;10.43;;
67508;SDS011;54354;44.724;11.284;2023-07-08T06:01:28;16.40;;;10.75;;
67508;SDS011;54354;44.724;11.284;2023-07-08T06:03:55;17.10;;;10.18;;
67508;SDS011;54354;44.724;11.284;2023-07-08T06:06:23;15.57;;;9.75;;
67508;SDS011;54354;44.724;11.284;2023-07-08T06:08:49;12.40;;;9.60;;
67508;SDS011;54354;44.724;11.284;2023-07-08T06:11:15;14.90;;;9.40;;
67508;SDS011;54354;44.724;11.284;2023-07-08T06:13:41;12.65;;;9.70;;
67508;SDS011;54354;44.724;11.284;2023-07-08T06:16:06;17.05;;;9.88;;
67508;SDS011;54354;44.724;11.284;2023-07-08T06:18:32;19.52;;;9.60;;
67508;SDS011;54354;44.724;11.284;2023-07-08T06:20:58;11.23;;;9.48;;
67508;SDS011;54354;44.724;11.284;2023-07-08T06:23:24;10.55;;;9.45;;
67508;SDS011;54354;44.724;11.284;2023-07-08T06:25:50;13.68;;;9.35;;
67508;SDS011;54354;44.724;11.284;2023-07-08T06:28:15;8.85;;;7.95;;
67508;SDS011;54354;44.724;11.284;2023-07-08T06:30:41;11.63;;;8.68;;
67508;SDS011;54354;44.724;11.284;2023-07-08T06:33:07;15.25;;;8.60;;
67508;SDS011;54354;44.724;11.284;2023-07-08T06:35:32;11.38;;;8.55;;
67508;SDS011;54354;44.724;11.284;2023-07-08T06:37:58;9.52;;;8.15;;
67508;SDS011;54354;44.724;11.284;2023-07-08T06:40:23;11.50;;;6.93;;
67508;SDS011;54354;44.724;11.284;2023-07-08T06:42:49;6.95;;;6.10;;
67508;SDS011;54354;44.724;11.284;2023-07-08T06:45:44;9.30;;;7.65;;
67508;SDS011;54354;44.724;11.284;2023-07-08T06:48:09;13.25;;;7.03;;
67508;SDS011;54354;44.724;11.284;2023-07-08T06:50:35;8.73;;;6.63;;
67508;SDS011;54354;44.724;11.284;2023-07-08T06:53:00;11.30;;;6.80;;
67508;SDS011;54354;44.724;11.284;2023-07-08T06:55:26;10.23;;;6.47;;
67508;SDS011;54354;44.724;11.284;2023-07-08T06:57:52;8.27;;;6.60;;
67508;SDS011;54354;44.724;11.284;2023-07-08T07:00:18;14.63;;;6.82;;
67508;SDS011;54354;44.724;11.284;2023-07-08T07:02:43;10.20;;;6.22;;
67508;SDS011;54354;44.724;11.284;2023-07-08T07:05:09;7.78;;;5.93;;
67508;SDS011;54354;44.724;11.284;2023-07-08T07:07:35;7.22;;;4.70;;
67508;SDS011;54354;44.724;11.284;2023-07-08T07:10:00;6.45;;;5.18;;
67508;SDS011;54354;44.724;11.284;2023-07-08T07:12:26;5.82;;;5.32;;
67508;SDS011;54354;44.724;11.284;2023-07-08T07:14:52;10.63;;;5.07;;
67508;SDS011;54354;44.724;11.284;2023-07-08T07:17:19;7.25;;;5.25;;
67508;SDS011;54354;44.724;11.284;2023-07-08T07:19:46;9.25;;;5.30;;
67508;SDS011;54354;44.724;11.284;2023-07-08T07:22:13;10.18;;;5.57;;
67508;SDS011;54354;44.724;11.284;2023-07-08T07:24:39;6.85;;;5.25;;
67508;SDS011;54354;44.724;11.284;2023-07-08T07:27:04;6.82;;;5.03;;
67508;SDS011;54354;44.724;11.284;2023-07-08T07:29:38;9.13;;;5.38;;
67508;SDS011;54354;44.724;11.284;2023-07-08T07:32:08;13.63;;;4.70;;
67508;SDS011;54354;44.724;11.284;2023-07-08T07:34:35;7.05;;;4.72;;
67508;SDS011;54354;44.724;11.284;2023-07-08T07:37:00;7.85;;;4.32;;
67508;SDS011;54354;44.724;11.284;2023-07-08T07:39:26;8.63;;;4.50;;
67508;SDS011;54354;44.724;11.284;2023-07-08T07:41:52;8.55;;;4.45;;
67508;SDS011;54354;44.724;11.284;2023-07-08T07:44:17;7.82;;;4.80;;
67508;SDS011;54354;44.724;11.284;2023-07-08T07:46:42;12.32;;;5.20;;
67508;SDS011;54354;44.724;11.284;2023-07-08T07:49:08;11.95;;;5.63;;
67508;SDS011;54354;44.724;11.284;2023-07-08T07:51:34;13.98;;;5.10;;
67508;SDS011;54354;44.724;11.284;2023-07-08T07:53:59;7.45;;;4.68;;
67508;SDS011;54354;44.724;11.284;2023-07-08T07:56:24;7.88;;;4.63;;
67508;SDS011;54354;44.724;11.284;2023-07-08T07:58:50;8.80;;;4.55;;
67508;SDS011;54354;44.724;11.284;2023-07-08T08:01:16;7.20;;;4.78;;
67508;SDS011;54354;44.724;11.284;2023-07-08T08:03:41;5.50;;;4.47;;
67508;SDS011;54354;44.724;11.284;2023-07-08T08:06:07;6.82;;;4.90;;
67508;SDS011;54354;44.724;11.284;2023-07-08T08:08:33;4.95;;;4.45;;
67508;SDS011;54354;44.724;11.284;2023-07-08T08:10:58;8.27;;;4.65;;
67508;SDS011;54354;44.724;11.284;2023-07-08T08:13:24;5.10;;;4.50;;
67508;SDS011;54354;44.724;11.284;2023-07-08T08:15:55;5.03;;;4.63;;
67508;SDS011;54354;44.724;11.284;2023-07-08T08:18:25;7.07;;;5.10;;
67508;SDS011;54354;44.724;11.284;2023-07-08T08:20:50;6.10;;;4.82;;
67508;SDS011;54354;44.724;11.284;2023-07-08T08:23:16;7.10;;;4.53;;
67508;SDS011;54354;44.724;11.284;2023-07-08T08:25:42;15.65;;;5.05;;
67508;SDS011;54354;44.724;11.284;2023-07-08T08:28:07;5.43;;;4.93;;
67508;SDS011;54354;44.724;11.284;2023-07-08T08:30:33;4.45;;;4.05;;
67508;SDS011;54354;44.724;11.284;2023-07-08T08:33:04;5.20;;;4.78;;
67508;SDS011;54354;44.724;11.284;2023-07-08T08:35:31;5.07;;;4.57;;
67508;SDS011;54354;44.724;11.284;2023-07-08T08:37:59;4.93;;;4.53;;
67508;SDS011;54354;44.724;11.284;2023-07-08T08:40:25;5.43;;;4.88;;
67508;SDS011;54354;44.724;11.284;2023-07-08T08:42:51;4.50;;;4.10;;
67508;SDS011;54354;44.724;11.284;2023-07-08T08:45:24;55.85;;;8.32;;
67508;SDS011;54354;44.724;11.284;2023-07-08T08:47:56;160.77;;;13.52;;
67508;SDS011;54354;44.724;11.284;2023-07-08T08:50:29;69.47;;;8.45;;
67508;SDS011;54354;44.724;11.284;2023-07-08T08:52:59;39.67;;;6.35;;
67508;SDS011;54354;44.724;11.284;2023-07-08T08:55:31;32.38;;;6.57;;
67508;SDS011;54354;44.724;11.284;2023-07-08T09:00:54;9.45;;;4.50;;
67508;SDS011;54354;44.724;11.284;2023-07-08T09:06:31;9.55;;;4.30;;
67508;SDS011;54354;44.724;11.284;2023-07-08T09:09:12;5.95;;;4.40;;
67508;SDS011;54354;44.724;11.284;2023-07-08T09:22:30;8.43;;;4.40;;
67508;SDS011;54354;44.724;11.284;2023-07-08T09:28:39;6.15;;;4.18;;
67508;SDS011;54354;44.724;11.284;2023-07-08T09:31:08;4.50;;;4.07;;
67508;SDS011;54354;44.724;11.284;2023-07-08T09:33:42;4.20;;;3.80;;
67508;SDS011;54354;44.724;11.284;2023-07-08T09:36:17;4.47;;;4.07;;
67508;SDS011;54354;44.724;11.284;2023-07-08T09:38:47;4.43;;;4.05;;
67508;SDS011;54354;44.724;11.284;2023-07-08T09:41:17;4.45;;;4.05;;
67508;SDS011;54354;44.724;11.284;2023-07-08T09:44:08;5.30;;;4.07;;
67508;SDS011;54354;44.724;11.284;2023-07-08T09:46:37;6.95;;;4.10;;
67508;SDS011;54354;44.724;11.284;2023-07-08T09:49:12;4.40;;;4.00;;
67508;SDS011;54354;44.724;11.284;2023-07-08T09:51:41;4.35;;;3.90;;
67508;SDS011;54354;44.724;11.284;2023-07-08T09:54:07;4.75;;;4.22;;
67508;SDS011;54354;44.724;11.284;2023-07-08T09:56:33;4.88;;;3.78;;
67508;SDS011;54354;44.724;11.284;2023-07-08T09:58:59;5.60;;;3.95;;
67508;SDS011;54354;44.724;11.284;2023-07-08T10:01:25;4.97;;;3.88;;
67508;SDS011;54354;44.724;11.284;2023-07-08T10:03:57;6.00;;;4.05;;
67508;SDS011;54354;44.724;11.284;2023-07-08T10:06:28;4.50;;;4.10;;
67508;SDS011;54354;44.724;11.284;2023-07-08T10:09:00;6.32;;;3.95;;
67508;SDS011;54354;44.724;11.284;2023-07-08T10:11:29;6.50;;;4.28;;
67508;SDS011;54354;44.724;11.284;2023-07-08T10:13:57;4.60;;;4.20;;
67508;SDS011;54354;44.724;11.284;2023-07-08T10:16:28;6.53;;;3.97;;
67508;SDS011;54354;44.724;11.284;2023-07-08T10:18:56;5.95;;;3.85;;
67508;SDS011;54354;44.724;11.284;2023-07-08T10:23:56;4.93;;;4.18;;
67508;SDS011;54354;44.724;11.284;2023-07-08T10:26:38;7.55;;;4.28;;
67508;SDS011;54354;44.724;11.284;2023-07-08T10:29:12;8.30;;;3.88;;
67508;SDS011;54354;44.724;11.284;2023-07-08T10:35:04;4.82;;;4.20;;
67508;SDS011;54354;44.724;11.284;2023-07-08T10:46:27;4.80;;;4.00;;
67508;SDS011;54354;44.724;11.284;2023-07-08T11:00:21;5.70;;;4.00;;
67508;SDS011;54354;44.724;11.284;2023-07-08T11:10:39;6.65;;;3.72;;
67508;SDS011;54354;44.724;11.284;2023-07-08T11:13:13;5.70;;;3.92;;
67508;SDS011;54354;44.724;11.284;2023-07-08T11:15:58;8.55;;;3.85;;
67508;SDS011;54354;44.724;11.284;2023-07-08T11:18:37;4.57;;;3.53;;
67508;SDS011;54354;44.724;11.284;2023-07-08T11:21:16;5.07;;;3.78;;
67508;SDS011;54354;44.724;11.284;2023-07-08T11:29:24;4.30;;;3.90;;
67508;SDS011;54354;44.724;11.284;2023-07-08T11:31:55;4.05;;;3.70;;
67508;SDS011;54354;44.724;11.284;2023-07-08T11:34:21;7.47;;;3.70;;
67508;SDS011;54354;44.724;11.284;2023-07-08T11:36:48;4.20;;;3.63;;
67508;SDS011;54354;44.724;11.284;2023-07-08T11:44:41;4.18;;;3.78;;
67508;SDS011;54354;44.724;11.284;2023-07-08T11:47:19;4.93;;;3.90;;
67508;SDS011;54354;44.724;11.284;2023-07-08T11:49:47;5.72;;;3.65;;
67508;SDS011;54354;44.724;11.284;2023-07-08T11:52:16;3.75;;;3.40;;
67508;SDS011;54354;44.724;11.284;2023-07-08T11:54:47;6.40;;;3.97;;
67508;SDS011;54354;44.724;11.284;2023-07-08T11:57:17;4.15;;;3.30;;
67508;SDS011;54354;44.724;11.284;2023-07-08T11:59:44;3.78;;;3.47;;
67508;SDS011;54354;44.724;11.284;2023-07-08T12:02:12;3.67;;;3.38;;
67508;SDS011;54354;44.724;11.284;2023-07-08T12:07:21;4.10;;;3.70;;
67508;SDS011;54354;44.724;11.284;2023-07-08T12:09:59;5.30;;;3.50;;
67508;SDS011;54354;44.724;11.284;2023-07-08T12:12:31;4.55;;;3.53;;
67508;SDS011;54354;44.724;11.284;2023-07-08T12:17:47;3.58;;;3.28;;
67508;SDS011;54354;44.724;11.284;2023-07-08T12:20:17;7.03;;;3.88;;
67508;SDS011;54354;44.724;11.284;2023-07-08T12:22:51;4.60;;;3.53;;
67508;SDS011;54354;44.724;11.284;2023-07-08T12:25:19;4.28;;;3.88;;
67508;SDS011;54354;44.724;11.284;2023-07-08T12:27:47;4.00;;;3.55;;
67508;SDS011;54354;44.724;11.284;2023-07-08T12:30:13;4.40;;;3.70;;
67508;SDS011;54354;44.724;11.284;2023-07-08T12:32:41;5.75;;;3.72;;
67508;SDS011;54354;44.724;11.284;2023-07-08T12:38:00;4.30;;;3.90;;
67508;SDS011;54354;44.724;11.284;2023-07-08T12:40:30;5.60;;;4.07;;
67508;SDS011;54354;44.724;11.284;2023-07-08T12:42:56;5.68;;;4.03;;
67508;SDS011;54354;44.724;11.284;2023-07-08T12:45:25;4.17;;;3.77;;
67508;SDS011;54354;44.724;11.284;2023-07-08T12:47:52;4.47;;;3.85;;
67508;SDS011;54354;44.724;11.284;2023-07-08T12:50:18;4.00;;;3.60;;
67508;SDS011;54354;44.724;11.284;2023-07-08T12:52:44;4.13;;;3.72;;
67508;SDS011;54354;44.724;11.284;2023-07-08T12:55:11;6.65;;;4.00;;
67508;SDS011;54354;44.724;11.284;2023-07-08T12:57:38;5.55;;;4.22;;
67508;SDS011;54354;44.724;11.284;2023-07-08T13:00:08;4.15;;;3.85;;
67508;SDS011;54354;44.724;11.284;2023-07-08T13:02:37;4.15;;;3.75;;
67508;SDS011;54354;44.724;11.284;2023-07-08T13:05:04;3.85;;;3.53;;
67508;SDS011;54354;44.724;11.284;2023-07-08T13:10:04;4.72;;;3.80;;
67508;SDS011;54354;44.724;11.284;2023-07-08T13:12:32;4.45;;;3.88;;
67508;SDS011;54354;44.724;11.284;2023-07-08T13:15:03;4.30;;;3.90;;
67508;SDS011;54354;44.724;11.284;2023-07-08T13:17:36;6.88;;;4.20;;
67508;SDS011;54354;44.724;11.284;2023-07-08T13:20:03;6.10;;;3.72;;
67508;SDS011;54354;44.724;11.284;2023-07-08T13:22:29;7.13;;;4.22;;
67508;SDS011;54354;44.724;11.284;2023-07-08T13:25:00;4.28;;;3.88;;
67508;SDS011;54354;44.724;11.284;2023-07-08T13:27:27;6.82;;;4.10;;
67508;SDS011;54354;44.724;11.284;2023-07-08T13:29:57;4.38;;;3.95;;
67508;SDS011;54354;44.724;11.284;2023-07-08T13:32:40;4.63;;;4.18;;
67508;SDS011;54354;44.724;11.284;2023-07-08T13:35:20;5.28;;;3.80;;
67508;SDS011;54354;44.724;11.284;2023-07-08T13:40:36;5.85;;;4.03;;
67508;SDS011;54354;44.724;11.284;2023-07-08T13:43:09;4.15;;;3.75;;
67508;SDS011;54354;44.724;11.284;2023-07-08T13:45:34;3.97;;;3.60;;
67508;SDS011;54354;44.724;11.284;2023-07-08T13:50:50;4.85;;;3.80;;
67508;SDS011;54354;44.724;11.284;2023-07-08T13:53:23;5.05;;;4.32;;
67508;SDS011;54354;44.724;11.284;2023-07-08T13:55:57;4.35;;;4.03;;
67508;SDS011;54354;44.724;11.284;2023-07-08T13:58:26;4.45;;;4.05;;
67508;SDS011;54354;44.724;11.284;2023-07-08T14:00:54;4.53;;;4.15;;
67508;SDS011;54354;44.724;11.284;2023-07-08T14:03:21;5.53;;;3.83;;
67508;SDS011;54354;44.724;11.284;2023-07-08T14:05:47;4.45;;;4.05;;
67508;SDS011;54354;44.724;11.284;2023-07-08T14:08:13;4.65;;;4.25;;
67508;SDS011;54354;44.724;11.284;2023-07-08T14:10:40;7.18;;;4.10;;
67508;SDS011;54354;44.724;11.284;2023-07-08T14:13:06;4.53;;;3.70;;
67508;SDS011;54354;44.724;11.284;2023-07-08T14:15:32;4.50;;;3.97;;
67508;SDS011;54354;44.724;11.284;2023-07-08T14:17:59;6.15;;;4.15;;
67508;SDS011;54354;44.724;11.284;2023-07-08T14:20:26;4.43;;;4.03;;
67508;SDS011;54354;44.724;11.284;2023-07-08T14:22:57;4.63;;;4.20;;
67508;SDS011;54354;44.724;11.284;2023-07-08T14:25:23;5.10;;;4.07;;
67508;SDS011;54354;44.724;11.284;2023-07-08T14:27:50;4.85;;;3.95;;
67508;SDS011;54354;44.724;11.284;2023-07-08T14:30:20;4.28;;;3.88;;
67508;SDS011;54354;44.724;11.284;2023-07-08T14:32:48;4.57;;;3.45;;
67508;SDS011;54354;44.724;11.284;2023-07-08T14:35:18;5.13;;;3.83;;
67508;SDS011;54354;44.724;11.284;2023-07-08T14:37:52;4.22;;;3.83;;
67508;SDS011;54354;44.724;11.284;2023-07-08T14:40:33;4.20;;;3.58;;
67508;SDS011;54354;44.724;11.284;2023-07-08T14:45:42;4.63;;;3.92;;
67508;SDS011;54354;44.724;11.284;2023-07-08T14:48:11;4.38;;;3.80;;
67508;SDS011;54354;44.724;11.284;2023-07-08T14:50:37;4.35;;;3.95;;
67508;SDS011;54354;44.724;11.284;2023-07-08T14:53:04;7.38;;;3.55;;
67508;SDS011;54354;44.724;11.284;2023-07-08T14:55:30;4.05;;;3.75;;
67508;SDS011;54354;44.724;11.284;2023-07-08T14:57:55;4.10;;;3.70;;
67508;SDS011;54354;44.724;11.284;2023-07-08T15:00:22;4.28;;;3.88;;
67508;SDS011;54354;44.724;11.284;2023-07-08T15:02:48;4.45;;;3.70;;
67508;SDS011;54354;44.724;11.284;2023-07-08T15:05:19;6.32;;;4.05;;
67508;SDS011;54354;44.724;11.284;2023-07-08T15:07:52;6.53;;;3.97;;
67508;SDS011;54354;44.724;11.284;2023-07-08T15:10:25;4.20;;;3.65;;
67508;SDS011;54354;44.724;11.284;2023-07-08T15:12:53;3.70;;;3.40;;
67508;SDS011;54354;44.724;11.284;2023-07-08T15:15:21;3.92;;;3.60;;
67508;SDS011;54354;44.724;11.284;2023-07-08T15:17:51;3.88;;;3.53;;
67508;SDS011;54354;44.724;11.284;2023-07-08T15:20:17;4.68;;;3.90;;
67508;SDS011;54354;44.724;11.284;2023-07-08T15:22:43;3.80;;;3.50;;
67508;SDS011;54354;44.724;11.284;2023-07-08T15:25:09;4.30;;;3.90;;
67508;SDS011;54354;44.724;11.284;2023-07-08T15:30:25;5.63;;;3.78;;
67508;SDS011;54354;44.724;11.284;2023-07-08T15:32:52;9.40;;;3.90;;
67508;SDS011;54354;44.724;11.284;2023-07-08T15:35:20;6.85;;;3.47;;
67508;SDS011;54354;44.724;11.284;2023-07-08T15:37:47;3.85;;;3.53;;
67508;SDS011;54354;44.724;11.284;2023-07-08T15:40:13;4.00;;;3.60;;
67508;SDS011;54354;44.724;11.284;2023-07-08T15:42:41;4.63;;;3.58;;
67508;SDS011;54354;44.724;11.284;2023-07-08T15:45:12;4.85;;;3.63;;
67508;SDS011;54354;44.724;11.284;2023-07-08T15:47:40;6.82;;;3.72;;
67508;SDS011;54354;44.724;11.284;2023-07-08T15:50:09;7.68;;;3.78;;
67508;SDS011;54354;44.724;11.284;2023-07-08T15:52:36;5.40;;;3.65;;
67508;SDS011;54354;44.724;11.284;2023-07-08T15:55:01;3.75;;;3.30;;
67508;SDS011;54354;44.724;11.284;2023-07-08T15:57:27;3.65;;;3.35;;
67508;SDS011;54354;44.724;11.284;2023-07-08T15:59:53;3.72;;;3.40;;
67508;SDS011;54354;44.724;11.284;2023-07-08T16:02:23;4.28;;;3.40;;
67508;SDS011;54354;44.724;11.284;2023-07-08T16:04:51;3.85;;;3.35;;
67508;SDS011;54354;44.724;11.284;2023-07-08T16:07:17;5.45;;;3.75;;